Time;durP1;ratioP1;P1;durP2;ratioP2;P2;SDS_P1;SDS_P2;PMS_P1;PMS_P2;Temp;Humidity;BMP_temperature;BMP_pressure;BME280_temperature;BME280_humidity;BME280_pressure;Samples;Min_cycle;Max_cycle;Signal;HPM_P1;HPM_P2
2023/12/13 00:01:24;;;;;;;13.30;9.23;;;6.20;99.90;;;;;;6151350;23;20006;-65
2023/12/13 00:04:10;;;;;;;16.20;10.18;;;6.20;99.90;;;;;;6152334;23;20013;-65
2023/12/13 00:06:56;;;;;;;21.33;11.50;;;6.20;99.90;;;;;;6150543;23;20056;-65
2023/12/13 00:09:42;;;;;;;18.05;11.25;;;6.20;99.90;;;;;;6152086;23;20305;-64
2023/12/13 00:12:28;;;;;;;17.83;11.05;;;6.20;99.90;;;;;;6151713;23;20417;-65
2023/12/13 00:15:14;;;;;;;17.15;10.48;;;6.20;99.90;;;;;;6151549;23;20013;-65
2023/12/13 00:18:00;;;;;;;16.63;11.63;;;6.10;99.90;;;;;;6151586;23;20002;-65
2023/12/13 00:20:46;;;;;;;16.83;11.02;;;6.20;99.90;;;;;;6150479;23;20444;-66
2023/12/13 00:23:32;;;;;;;17.02;11.40;;;6.20;99.90;;;;;;6150857;23;20033;-66
2023/12/13 00:26:19;;;;;;;20.23;10.50;;;6.20;99.90;;;;;;6149830;23;20002;-65
2023/12/13 00:29:05;;;;;;;19.05;11.32;;;6.20;99.90;;;;;;6150141;23;20021;-65
2023/12/13 00:31:51;;;;;;;17.80;10.55;;;6.20;99.90;;;;;;6149456;23;20044;-65
2023/12/13 00:34:36;;;;;;;18.98;11.05;;;6.20;99.90;;;;;;6151058;23;20010;-66
2023/12/13 00:37:23;;;;;;;18.80;11.93;;;6.20;99.90;;;;;;6151301;23;20081;-66
2023/12/13 00:40:10;;;;;;;22.50;12.32;;;6.20;99.90;;;;;;6151386;23;20299;-65
2023/12/13 00:42:56;;;;;;;17.50;11.32;;;6.10;99.90;;;;;;6151760;23;20005;-64
2023/12/13 00:45:42;;;;;;;18.85;12.32;;;6.10;99.90;;;;;;6150594;23;20009;-67
2023/12/13 00:48:28;;;;;;;18.45;11.63;;;6.00;99.90;;;;;;6151475;23;20448;-66
2023/12/13 00:51:19;;;;;;;17.10;10.50;;;6.00;99.90;;;;;;6150462;23;20037;-65
2023/12/13 00:54:05;;;;;;;19.42;12.23;;;6.00;99.90;;;;;;6150889;23;20012;-66
2023/12/13 00:56:50;;;;;;;20.25;11.95;;;6.00;99.90;;;;;;6151070;23;20044;-65
2023/12/13 00:59:36;;;;;;;21.80;11.93;;;6.00;99.90;;;;;;6151982;23;20455;-65
2023/12/13 01:02:22;;;;;;;18.73;11.77;;;6.00;99.90;;;;;;6152525;23;20395;-65
2023/12/13 01:05:09;;;;;;;17.88;11.75;;;6.10;99.90;;;;;;6150330;23;20017;-65
2023/12/13 01:07:55;;;;;;;17.90;11.18;;;6.10;99.90;;;;;;6151245;23;20005;-65
2023/12/13 01:10:40;;;;;;;18.85;11.80;;;6.20;99.90;;;;;;6151820;23;20017;-65
2023/12/13 01:13:27;;;;;;;22.83;12.43;;;6.20;99.90;;;;;;6150892;23;20055;-64
2023/12/13 01:16:13;;;;;;;22.13;11.75;;;6.20;99.90;;;;;;6150372;23;20009;-64
2023/12/13 01:19:00;;;;;;;23.50;13.02;;;6.20;99.90;;;;;;6150366;23;20092;-65
2023/12/13 01:21:46;;;;;;;22.10;12.38;;;6.20;99.90;;;;;;6150546;23;20088;-64
2023/12/13 01:24:32;;;;;;;19.48;12.07;;;6.20;99.90;;;;;;6150196;23;20052;-65
2023/12/13 01:27:18;;;;;;;21.50;12.93;;;6.20;99.90;;;;;;6150433;23;20009;-64
2023/12/13 01:30:05;;;;;;;20.85;13.88;;;6.20;99.90;;;;;;6151781;23;20070;-74
2023/12/13 01:32:50;;;;;;;21.98;12.77;;;6.20;99.90;;;;;;6150863;23;20024;-74
2023/12/13 01:35:36;;;;;;;23.25;14.43;;;6.20;99.90;;;;;;6150396;23;20088;-75
2023/12/13 01:38:22;;;;;;;21.77;13.57;;;6.20;99.90;;;;;;6151342;23;20052;-73
2023/12/13 01:41:08;;;;;;;17.85;11.68;;;6.20;99.90;;;;;;6150752;23;20009;-72
2023/12/13 01:43:54;;;;;;;20.27;12.13;;;6.20;99.90;;;;;;6150137;23;20002;-73
2023/12/13 01:46:41;;;;;;;16.95;10.77;;;6.20;99.90;;;;;;6150508;23;20395;-73
2023/12/13 01:49:27;;;;;;;22.02;12.38;;;6.20;99.90;;;;;;6152087;23;20013;-72
2023/12/13 01:52:15;;;;;;;19.42;12.73;;;6.30;99.90;;;;;;6151068;23;19998;-73
2023/12/13 01:55:01;;;;;;;18.90;11.82;;;6.20;99.90;;;;;;6151614;23;20009;-74
2023/12/13 01:57:47;;;;;;;17.85;11.70;;;6.20;99.90;;;;;;6148680;23;20009;-73
2023/12/13 02:00:34;;;;;;;21.10;11.00;;;6.20;99.90;;;;;;6148317;23;20009;-74
2023/12/13 02:03:24;;;;;;;18.85;10.23;;;6.30;99.90;;;;;;6150727;23;19997;-74
2023/12/13 02:06:10;;;;;;;20.50;12.35;;;6.30;99.90;;;;;;6149585;23;20017;-72
2023/12/13 02:08:56;;;;;;;18.70;10.88;;;6.30;99.90;;;;;;6149285;23;20436;-74
2023/12/13 02:11:42;;;;;;;16.48;10.75;;;6.30;99.90;;;;;;6150828;23;20084;-73
2023/12/13 02:14:28;;;;;;;15.00;9.50;;;6.30;99.90;;;;;;6151185;23;20009;-72
2023/12/13 02:17:14;;;;;;;16.17;10.13;;;6.30;99.90;;;;;;6150017;23;20012;-72
2023/12/13 02:20:01;;;;;;;15.77;10.35;;;6.30;99.90;;;;;;6151124;23;20084;-73
2023/12/13 02:22:46;;;;;;;16.20;11.23;;;6.30;99.90;;;;;;6150362;23;20005;-71
2023/12/13 02:25:39;;;;;;;17.27;10.85;;;6.40;99.90;;;;;;6150103;23;20014;-72
2023/12/13 02:28:26;;;;;;;14.02;10.10;;;6.30;99.90;;;;;;6151723;23;20436;-72
2023/12/13 02:31:16;;;;;;;16.50;10.55;;;6.40;99.90;;;;;;6152383;23;20412;-72
2023/12/13 02:34:02;;;;;;;15.35;9.93;;;6.40;99.90;;;;;;6153153;23;20435;-73
2023/12/13 02:36:48;;;;;;;18.45;10.75;;;6.40;99.90;;;;;;6153044;23;20013;-72
2023/12/13 02:39:34;;;;;;;14.77;9.60;;;6.40;99.90;;;;;;6150903;23;20077;-73
2023/12/13 02:42:20;;;;;;;14.63;9.82;;;6.50;99.90;;;;;;6153201;23;20033;-72
2023/12/13 02:45:10;;;;;;;11.90;8.65;;;6.50;99.90;;;;;;6152092;23;20001;-73
2023/12/13 02:47:59;;;;;;;15.10;9.73;;;6.50;99.90;;;;;;6151399;23;20025;-72
2023/12/13 02:50:46;;;;;;;16.95;10.70;;;6.50;99.90;;;;;;6151278;23;20071;-73
2023/12/13 02:53:33;;;;;;;14.65;9.55;;;6.50;99.90;;;;;;6153406;23;20440;-75
2023/12/13 02:56:19;;;;;;;19.23;11.45;;;6.50;99.90;;;;;;6152190;23;20049;-65
2023/12/13 02:59:05;;;;;;;13.40;9.20;;;6.60;99.90;;;;;;6152842;23;20009;-65
2023/12/13 03:01:51;;;;;;;15.80;10.07;;;6.50;99.90;;;;;;6152083;23;20088;-65
2023/12/13 03:04:36;;;;;;;16.45;9.95;;;6.50;99.90;;;;;;6151800;23;20067;-65
2023/12/13 03:07:23;;;;;;;15.88;9.80;;;6.50;99.90;;;;;;6153453;23;20002;-65
2023/12/13 03:10:09;;;;;;;18.50;10.25;;;6.40;99.90;;;;;;6150688;23;20504;-65
2023/12/13 03:12:55;;;;;;;14.35;10.05;;;6.50;99.90;;;;;;6151736;23;20053;-65
2023/12/13 03:15:41;;;;;;;15.73;9.45;;;6.50;99.90;;;;;;6151893;23;20137;-66
2023/12/13 03:18:27;;;;;;;16.67;10.23;;;6.50;99.90;;;;;;6152216;23;20010;-66
2023/12/13 03:21:13;;;;;;;14.77;9.60;;;6.50;99.90;;;;;;6152254;23;20009;-66
2023/12/13 03:23:59;;;;;;;15.57;9.90;;;6.50;99.90;;;;;;6153047;23;20567;-66
2023/12/13 03:26:45;;;;;;;18.33;9.68;;;6.60;99.90;;;;;;6153981;23;20378;-66
2023/12/13 03:29:31;;;;;;;14.77;10.15;;;6.60;99.90;;;;;;6153938;23;20017;-66
2023/12/13 03:32:17;;;;;;;15.52;10.02;;;6.60;99.90;;;;;;6151980;23;20361;-65
2023/12/13 03:35:03;;;;;;;13.25;8.82;;;6.60;99.90;;;;;;6151626;23;20064;-66
2023/12/13 03:37:49;;;;;;;15.48;10.02;;;6.60;99.90;;;;;;6150586;23;20010;-65
2023/12/13 03:40:35;;;;;;;16.83;11.25;;;6.70;99.90;;;;;;6152641;23;20032;-65
2023/12/13 03:43:20;;;;;;;17.52;11.57;;;6.70;99.90;;;;;;6151741;23;20001;-65
2023/12/13 03:46:07;;;;;;;15.40;10.07;;;6.70;99.90;;;;;;6152705;23;20013;-66
2023/12/13 03:48:53;;;;;;;19.05;10.60;;;6.70;99.90;;;;;;6151575;23;20261;-66
2023/12/13 03:51:43;;;;;;;18.35;10.73;;;6.70;99.90;;;;;;6150036;23;20005;-66
2023/12/13 03:54:29;;;;;;;15.45;9.77;;;6.70;99.90;;;;;;6150517;23;20656;-65
2023/12/13 03:57:15;;;;;;;14.93;10.43;;;6.60;99.90;;;;;;6150825;23;20076;-65
2023/12/13 04:00:01;;;;;;;18.23;10.98;;;6.70;99.90;;;;;;6150754;23;20006;-65
2023/12/13 04:02:47;;;;;;;16.60;10.93;;;6.70;99.90;;;;;;6150525;23;20009;-65
2023/12/13 04:05:33;;;;;;;18.30;10.68;;;6.70;99.90;;;;;;6151758;23;20001;-65
2023/12/13 04:08:19;;;;;;;18.98;10.75;;;6.80;99.90;;;;;;6151202;23;20092;-65
2023/12/13 04:11:06;;;;;;;14.52;9.50;;;6.70;99.90;;;;;;6148315;23;20010;-64
2023/12/13 04:13:52;;;;;;;16.88;10.05;;;6.70;99.90;;;;;;6149774;23;20084;-65
2023/12/13 04:16:38;;;;;;;18.17;11.02;;;6.70;99.90;;;;;;6151020;23;20462;-65
2023/12/13 04:19:24;;;;;;;14.90;10.27;;;6.80;99.90;;;;;;6151788;23;20442;-65
2023/12/13 04:22:09;;;;;;;15.25;11.80;;;6.80;99.90;;;;;;6152102;23;20010;-65
2023/12/13 04:24:55;;;;;;;18.48;10.65;;;6.80;99.90;;;;;;6151670;23;20014;-66
2023/12/13 04:27:43;;;;;;;20.10;11.00;;;6.90;99.90;;;;;;6151776;23;20009;-65
2023/12/13 04:30:29;;;;;;;17.25;10.57;;;6.80;99.90;;;;;;6151634;23;20017;-65
2023/12/13 04:33:18;;;;;;;18.02;11.48;;;6.90;99.90;;;;;;6152454;23;19998;-65
2023/12/13 04:36:05;;;;;;;16.50;10.98;;;7.00;99.90;;;;;;6151064;23;20009;-65
2023/12/13 04:38:51;;;;;;;18.23;11.00;;;7.00;99.90;;;;;;6150766;23;20001;-67
2023/12/13 04:41:38;;;;;;;17.48;10.88;;;7.00;99.90;;;;;;6150547;23;20049;-67
2023/12/13 04:44:27;;;;;;;16.45;11.18;;;7.00;99.90;;;;;;6150736;23;20016;-67
2023/12/13 04:47:13;;;;;;;16.17;11.13;;;7.00;99.90;;;;;;6150948;23;20005;-67
2023/12/13 04:49:59;;;;;;;16.55;11.43;;;7.00;99.90;;;;;;6150728;23;20017;-67
2023/12/13 04:52:45;;;;;;;16.77;10.60;;;7.00;99.90;;;;;;6148192;23;20375;-67
2023/12/13 04:55:31;;;;;;;15.10;9.93;;;7.10;99.90;;;;;;6150742;23;20407;-67
2023/12/13 04:58:17;;;;;;;15.98;10.48;;;7.00;99.90;;;;;;6152241;23;20017;-67
2023/12/13 05:01:03;;;;;;;19.40;12.38;;;7.00;99.90;;;;;;6150115;23;20043;-66
2023/12/13 05:03:49;;;;;;;14.43;10.35;;;7.00;99.90;;;;;;6150781;23;20044;-66
2023/12/13 05:06:35;;;;;;;17.92;9.77;;;7.00;99.90;;;;;;6152001;23;20005;-66
2023/12/13 05:09:21;;;;;;;19.05;11.55;;;7.00;99.90;;;;;;6151634;23;20607;-66
2023/12/13 05:12:07;;;;;;;17.23;11.20;;;7.00;99.90;;;;;;6151139;23;20321;-66
2023/12/13 05:14:53;;;;;;;18.90;11.27;;;7.00;99.90;;;;;;6151568;23;20495;-67
2023/12/13 05:17:39;;;;;;;17.20;10.77;;;7.00;99.90;;;;;;6152242;23;20005;-60
2023/12/13 05:20:25;;;;;;;18.58;11.55;;;7.00;99.90;;;;;;6150840;23;20010;-66
2023/12/13 05:23:11;;;;;;;18.02;11.20;;;7.00;99.90;;;;;;6150931;23;20006;-63
2023/12/13 05:25:57;;;;;;;17.40;11.02;;;7.00;99.90;;;;;;6150500;23;20009;-66
2023/12/13 05:28:43;;;;;;;20.98;11.85;;;7.00;99.90;;;;;;6149992;23;20037;-63
2023/12/13 05:31:29;;;;;;;16.58;11.98;;;7.00;99.90;;;;;;6150803;23;20009;-63
2023/12/13 05:34:15;;;;;;;18.27;11.05;;;7.00;99.90;;;;;;6150684;23;20093;-63
2023/12/13 05:37:05;;;;;;;18.02;11.25;;;7.00;99.90;;;;;;6151179;23;20009;-63
2023/12/13 05:39:51;;;;;;;20.48;12.65;;;7.00;99.90;;;;;;6151202;23;20144;-63
2023/12/13 05:42:37;;;;;;;20.05;11.82;;;7.00;99.90;;;;;;6150547;23;20045;-62
2023/12/13 05:45:23;;;;;;;17.38;11.35;;;7.00;99.90;;;;;;6150349;23;20010;-63
2023/12/13 05:48:09;;;;;;;15.93;11.73;;;7.00;99.90;;;;;;6151244;23;20017;-63
2023/12/13 05:50:54;;;;;;;16.70;11.77;;;7.00;99.90;;;;;;6151307;23;20417;-66
2023/12/13 05:53:40;;;;;;;19.83;13.23;;;7.00;99.90;;;;;;6150124;23;20321;-62
2023/12/13 05:56:27;;;;;;;19.17;12.43;;;7.00;99.90;;;;;;6151616;23;20092;-62
2023/12/13 05:59:13;;;;;;;16.58;10.73;;;7.10;99.90;;;;;;6150586;23;20065;-61
2023/12/13 06:01:59;;;;;;;18.27;11.90;;;7.10;99.90;;;;;;6148284;23;20016;-61
2023/12/13 06:04:45;;;;;;;19.08;11.77;;;7.10;99.90;;;;;;6151458;23;20005;-62
2023/12/13 06:07:32;;;;;;;22.77;13.73;;;7.10;99.90;;;;;;6151999;23;20005;-61
2023/12/13 06:10:18;;;;;;;21.80;12.48;;;7.10;99.90;;;;;;6153687;23;20502;-61
2023/12/13 06:13:04;;;;;;;18.38;12.43;;;7.10;99.90;;;;;;6151907;23;20012;-62
2023/12/13 06:15:50;;;;;;;17.00;12.48;;;7.20;99.90;;;;;;6153158;23;20021;-61
2023/12/13 06:18:35;;;;;;;21.42;13.02;;;7.20;99.90;;;;;;6153196;23;20037;-61
2023/12/13 06:21:21;;;;;;;20.08;12.18;;;7.30;99.90;;;;;;6153447;23;20010;-62
2023/12/13 06:24:07;;;;;;;17.52;11.75;;;7.10;99.90;;;;;;6150383;23;20343;-62
2023/12/13 06:26:53;;;;;;;18.50;12.25;;;7.20;99.90;;;;;;6150948;23;20010;-64
2023/12/13 06:29:39;;;;;;;18.35;12.00;;;7.20;99.90;;;;;;6151881;23;20020;-62
2023/12/13 06:32:25;;;;;;;19.30;12.43;;;7.30;99.90;;;;;;6152346;23;20010;-62
2023/12/13 06:35:13;;;;;;;18.67;12.02;;;7.20;99.90;;;;;;6153570;23;20025;-62
2023/12/13 06:37:59;;;;;;;14.50;9.98;;;7.20;99.90;;;;;;6152743;23;20460;-62
2023/12/13 06:40:45;;;;;;;15.10;10.48;;;7.20;99.90;;;;;;6153526;23;20028;-63
2023/12/13 06:43:31;;;;;;;16.25;11.00;;;7.20;99.90;;;;;;6152189;23;20017;-62
2023/12/13 06:46:17;;;;;;;17.83;12.25;;;7.20;99.90;;;;;;6152496;23;20092;-62
2023/12/13 06:49:04;;;;;;;16.20;10.93;;;7.30;99.90;;;;;;6151884;23;20061;-62
2023/12/13 06:51:50;;;;;;;17.60;10.48;;;7.20;99.90;;;;;;6148842;23;20033;-63
2023/12/13 06:54:36;;;;;;;17.00;10.98;;;7.30;99.90;;;;;;6152442;23;20024;-64
2023/12/13 06:57:22;;;;;;;16.65;11.05;;;7.30;99.90;;;;;;6152224;23;20032;-63
2023/12/13 07:00:08;;;;;;;17.30;12.13;;;7.30;99.90;;;;;;6150493;23;20006;-63
2023/12/13 07:02:54;;;;;;;16.80;11.00;;;7.30;99.90;;;;;;6151198;23;20031;-63
2023/12/13 07:05:40;;;;;;;16.15;10.32;;;7.30;99.90;;;;;;6151866;23;20161;-64
2023/12/13 07:08:26;;;;;;;14.52;9.68;;;7.30;99.90;;;;;;6151728;23;20013;-63
2023/12/13 07:11:12;;;;;;;15.98;9.70;;;7.30;99.90;;;;;;6152178;23;20088;-64
2023/12/13 07:13:59;;;;;;;15.98;10.05;;;7.30;99.90;;;;;;6151257;23;20009;-62
2023/12/13 07:16:46;;;;;;;12.80;9.65;;;7.30;99.90;;;;;;6152831;23;20068;-63
2023/12/13 07:19:31;;;;;;;13.80;9.63;;;7.30;99.90;;;;;;6150273;23;20005;-63
2023/12/13 07:22:18;;;;;;;14.85;9.88;;;7.30;99.90;;;;;;6148980;23;20456;-64
2023/12/13 07:25:06;;;;;;;17.48;10.13;;;7.30;99.90;;;;;;6151090;23;20002;-64
2023/12/13 07:27:52;;;;;;;12.43;8.65;;;7.30;99.90;;;;;;6152263;23;20020;-64
2023/12/13 07:30:38;;;;;;;13.65;9.98;;;7.30;99.90;;;;;;6153517;23;20014;-63
2023/12/13 07:33:24;;;;;;;13.60;8.90;;;7.30;99.90;;;;;;6152850;23;20319;-64
2023/12/13 07:36:12;;;;;;;13.30;9.30;;;7.30;99.90;;;;;;6152497;23;20314;-64
2023/12/13 07:38:58;;;;;;;12.98;8.68;;;7.40;99.90;;;;;;6149068;23;20440;-64
2023/12/13 07:41:44;;;;;;;13.15;9.43;;;7.40;99.90;;;;;;6153522;23;20016;-66
2023/12/13 07:44:32;;;;;;;14.90;9.25;;;7.40;99.90;;;;;;6151522;23;20033;-63
2023/12/13 07:47:18;;;;;;;12.18;9.25;;;7.40;99.90;;;;;;6149879;23;20010;-64
2023/12/13 07:50:06;;;;;;;13.45;9.38;;;7.50;99.90;;;;;;6152707;23;20440;-64
2023/12/13 07:52:52;;;;;;;12.45;8.75;;;7.50;99.90;;;;;;6150310;23;20005;-64
2023/12/13 07:55:38;;;;;;;11.20;9.00;;;7.40;99.90;;;;;;6152442;23;20027;-65
2023/12/13 07:58:24;;;;;;;12.13;9.13;;;7.50;99.90;;;;;;6150826;23;20001;-65
2023/12/13 08:01:10;;;;;;;15.05;9.90;;;7.60;99.90;;;;;;6152365;23;20064;-64
2023/12/13 08:03:56;;;;;;;12.88;9.57;;;7.60;99.90;;;;;;6150333;23;20502;-66
2023/12/13 08:06:42;;;;;;;14.45;9.82;;;7.60;99.90;;;;;;6148822;23;20009;-63
2023/12/13 08:09:28;;;;;;;14.77;9.88;;;7.70;99.90;;;;;;6150142;23;20079;-63
2023/12/13 08:12:14;;;;;;;15.23;10.60;;;7.70;99.90;;;;;;6152498;23;20005;-64
2023/12/13 08:15:05;;;;;;;15.13;10.27;;;7.70;99.90;;;;;;6151646;23;20016;-64
2023/12/13 08:17:51;;;;;;;14.45;11.07;;;7.70;99.90;;;;;;6152843;23;20006;-63
2023/12/13 08:20:37;;;;;;;17.30;11.10;;;7.80;99.90;;;;;;6150591;23;20012;-63
2023/12/13 08:23:22;;;;;;;15.55;10.38;;;7.80;99.90;;;;;;6151442;23;20005;-63
2023/12/13 08:26:12;;;;;;;12.93;9.70;;;7.80;99.90;;;;;;6150749;23;20021;-64
2023/12/13 08:28:58;;;;;;;15.32;11.57;;;7.80;99.90;;;;;;6150532;23;20028;-64
2023/12/13 08:31:45;;;;;;;18.17;11.88;;;7.80;99.90;;;;;;6151730;23;20006;-64
2023/12/13 08:34:31;;;;;;;15.85;12.30;;;7.80;99.90;;;;;;6147433;23;20009;-64
2023/12/13 08:37:17;;;;;;;18.33;13.02;;;7.80;99.90;;;;;;6150076;23;20432;-63
2023/12/13 08:40:04;;;;;;;19.05;12.27;;;7.80;99.90;;;;;;6149773;23;20342;-64
2023/12/13 08:42:50;;;;;;;16.63;12.23;;;7.70;99.90;;;;;;6150523;23;20006;-63
2023/12/13 08:45:36;;;;;;;18.50;12.90;;;7.70;99.90;;;;;;6149181;23;20041;-63
2023/12/13 08:48:23;;;;;;;17.67;13.02;;;7.80;99.90;;;;;;6149472;23;20010;-63
2023/12/13 08:51:10;;;;;;;18.35;12.05;;;7.70;99.90;;;;;;6148530;23;20013;-64
2023/12/13 08:53:56;;;;;;;18.70;12.88;;;7.70;99.90;;;;;;6150581;23;20309;-65
2023/12/13 08:56:42;;;;;;;21.05;13.23;;;7.70;99.90;;;;;;6151075;23;20048;-65
2023/12/13 08:59:27;;;;;;;21.55;13.93;;;7.70;99.90;;;;;;6147690;23;20005;-65
2023/12/13 09:02:13;;;;;;;22.48;14.88;;;7.70;99.90;;;;;;6148670;23;20013;-65
2023/12/13 09:05:00;;;;;;;20.25;15.20;;;7.70;99.90;;;;;;6150808;23;20336;-64
2023/12/13 09:07:46;;;;;;;24.10;16.23;;;7.70;99.90;;;;;;6148288;23;20432;-64
2023/12/13 09:10:34;;;;;;;22.85;15.75;;;7.70;99.90;;;;;;6149911;23;20329;-64
2023/12/13 09:13:20;;;;;;;25.70;16.17;;;7.70;99.90;;;;;;6149501;23;20005;-64
2023/12/13 09:16:06;;;;;;;24.50;16.17;;;7.70;99.90;;;;;;6151735;23;20347;-64
2023/12/13 09:18:52;;;;;;;25.52;18.33;;;7.80;99.90;;;;;;6149736;23;20033;-66
2023/12/13 09:21:38;;;;;;;29.15;17.48;;;7.80;99.90;;;;;;6151398;23;20010;-65
2023/12/13 09:24:24;;;;;;;23.00;16.42;;;7.80;99.90;;;;;;6149421;23;20013;-65
2023/12/13 09:27:10;;;;;;;23.83;15.15;;;7.80;99.90;;;;;;6149573;23;20047;-65
2023/12/13 09:29:56;;;;;;;21.92;15.20;;;7.80;99.90;;;;;;6150318;23;20018;-65
2023/12/13 09:32:42;;;;;;;26.52;17.92;;;7.80;99.90;;;;;;6150237;23;20092;-64
2023/12/13 09:35:28;;;;;;;28.42;16.25;;;7.80;99.90;;;;;;6151700;23;20442;-64
2023/12/13 09:38:14;;;;;;;25.25;16.27;;;7.80;99.90;;;;;;6150444;23;20424;-64
2023/12/13 09:41:00;;;;;;;24.70;16.55;;;7.90;99.90;;;;;;6150415;23;20141;-65
2023/12/13 09:43:46;;;;;;;24.80;17.05;;;7.90;99.90;;;;;;6149717;23;20013;-65
2023/12/13 09:46:32;;;;;;;22.05;15.38;;;7.90;99.90;;;;;;6150434;23;20328;-65
2023/12/13 09:49:23;;;;;;;26.77;17.30;;;7.80;99.90;;;;;;6145212;23;20025;-64
2023/12/13 09:52:10;;;;;;;26.65;18.13;;;7.80;99.90;;;;;;6149013;23;20428;-63
2023/12/13 09:54:57;;;;;;;25.35;16.13;;;7.80;99.90;;;;;;6151415;23;20010;-65
2023/12/13 09:57:43;;;;;;;25.85;17.73;;;7.80;99.90;;;;;;6149726;23;20020;-65
2023/12/13 10:00:29;;;;;;;25.55;17.00;;;7.80;99.90;;;;;;6150798;23;20005;-65
2023/12/13 10:03:15;;;;;;;29.48;18.33;;;7.80;99.90;;;;;;6150383;23;20012;-64
2023/12/13 10:06:05;;;;;;;30.73;19.33;;;7.80;99.90;;;;;;6150722;23;20566;-64
2023/12/13 10:08:57;;;;;;;27.05;17.98;;;7.80;99.90;;;;;;6149463;23;20471;-65
2023/12/13 10:11:43;;;;;;;29.42;19.13;;;7.80;99.90;;;;;;6149667;23;20031;-64
2023/12/13 10:14:29;;;;;;;27.63;19.15;;;7.90;99.90;;;;;;6150324;23;20383;-64
2023/12/13 10:17:22;;;;;;;30.77;20.05;;;7.80;99.90;;;;;;6149049;23;20328;-64
2023/12/13 10:20:08;;;;;;;29.67;20.35;;;7.80;99.90;;;;;;6148481;23;20207;-65
2023/12/13 10:22:54;;;;;;;31.83;19.33;;;7.80;99.90;;;;;;6150438;23;20013;-64
2023/12/13 10:25:40;;;;;;;33.17;22.50;;;7.80;99.90;;;;;;6150051;23;20059;-64
2023/12/13 10:28:26;;;;;;;30.70;22.17;;;7.80;99.90;;;;;;6149481;23;20036;-64
2023/12/13 10:31:12;;;;;;;29.38;19.23;;;7.80;99.90;;;;;;6151177;23;20020;-65
2023/12/13 10:33:58;;;;;;;31.13;19.58;;;7.70;99.90;;;;;;6148983;23;20494;-66
2023/12/13 10:36:46;;;;;;;29.83;20.20;;;7.80;99.90;;;;;;6150582;23;20010;-64
2023/12/13 10:39:34;;;;;;;32.20;20.15;;;7.70;99.90;;;;;;6150294;23;20396;-66
2023/12/13 10:42:23;;;;;;;30.65;20.13;;;7.80;99.90;;;;;;6149130;23;20041;-65
2023/12/13 10:45:10;;;;;;;27.38;18.88;;;7.80;99.90;;;;;;6151357;23;20006;-65
2023/12/13 10:48:06;;;;;;;27.52;19.50;;;7.80;99.90;;;;;;6150790;23;20014;-65
2023/12/13 10:50:55;;;;;;;25.73;18.05;;;7.80;99.90;;;;;;6153797;23;20017;-66
2023/12/13 10:53:42;;;;;;;28.77;17.73;;;7.80;99.90;;;;;;6150430;23;20090;-65
2023/12/13 10:56:28;;;;;;;25.73;16.77;;;7.80;99.90;;;;;;6150158;23;20026;-65
2023/12/13 10:59:15;;;;;;;25.27;16.60;;;7.80;99.90;;;;;;6152220;23;20348;-66
2023/12/13 11:02:02;;;;;;;28.67;17.05;;;7.80;99.90;;;;;;6152570;23;20009;-66
2023/12/13 11:04:49;;;;;;;24.98;17.05;;;7.80;99.90;;;;;;6151968;23;20081;-64
2023/12/13 11:07:43;;;;;;;25.30;17.83;;;7.80;99.90;;;;;;6152300;23;20096;-66
2023/12/13 11:10:29;;;;;;;24.98;17.27;;;7.80;99.90;;;;;;6152455;23;20139;-65
2023/12/13 11:13:22;;;;;;;27.38;17.83;;;7.80;99.90;;;;;;6152168;23;20006;-65
2023/12/13 11:16:38;;;;;;;26.05;16.40;;;7.80;99.90;;;;;;6151955;23;20005;-65
2023/12/13 11:19:25;;;;;;;24.90;15.50;;;7.80;99.90;;;;;;6153012;23;20332;-64
2023/12/13 11:22:14;;;;;;;22.98;16.02;;;7.80;99.90;;;;;;6152059;23;20009;-65
2023/12/13 11:25:06;;;;;;;24.55;16.20;;;7.90;99.90;;;;;;6151327;23;20455;-66
2023/12/13 11:27:55;;;;;;;26.20;16.50;;;7.90;99.90;;;;;;6152480;23;20017;-66
2023/12/13 11:30:41;;;;;;;26.48;16.92;;;7.90;99.90;;;;;;6152306;23;20021;-66
2023/12/13 11:33:34;;;;;;;25.75;15.65;;;7.90;99.90;;;;;;6152505;23;20010;-65
2023/12/13 11:36:22;;;;;;;23.05;14.77;;;7.80;99.90;;;;;;6151610;23;20071;-66
2023/12/13 11:39:08;;;;;;;22.23;15.00;;;7.80;99.90;;;;;;6152802;23;20005;-65
2023/12/13 11:41:54;;;;;;;23.45;15.90;;;7.80;99.90;;;;;;6151670;23;20037;-65
2023/12/13 11:44:40;;;;;;;25.20;16.08;;;7.80;99.90;;;;;;6151425;23;20036;-65
2023/12/13 11:47:26;;;;;;;25.70;16.48;;;7.70;99.90;;;;;;6152828;23;20428;-65
2023/12/13 11:50:13;;;;;;;25.05;17.55;;;7.80;99.90;;;;;;6151903;23;20398;-65
2023/12/13 11:52:59;;;;;;;25.45;17.40;;;7.80;99.90;;;;;;6148803;23;20001;-65
2023/12/13 11:55:45;;;;;;;25.73;17.45;;;7.80;99.90;;;;;;6150226;23;20065;-65
2023/12/13 11:58:31;;;;;;;25.88;16.40;;;7.90;99.90;;;;;;6148028;23;20415;-65
2023/12/13 12:01:19;;;;;;;25.88;17.27;;;7.90;99.90;;;;;;6151443;23;20002;-65
2023/12/13 12:04:05;;;;;;;24.13;15.93;;;7.90;99.90;;;;;;6151701;23;20058;-64
2023/12/13 12:06:55;;;;;;;27.20;16.85;;;8.00;99.90;;;;;;6150264;23;20010;-65
2023/12/13 12:09:53;;;;;;;27.08;17.65;;;8.00;99.90;;;;;;6151054;23;20063;-65
2023/12/13 12:12:39;;;;;;;31.15;17.67;;;8.00;99.90;;;;;;6149793;23;20016;-65
2023/12/13 12:15:26;;;;;;;28.63;17.63;;;8.00;99.90;;;;;;6151555;23;20105;-65
2023/12/13 12:18:13;;;;;;;29.00;19.02;;;8.00;99.90;;;;;;6150904;23;20010;-65
2023/12/13 12:20:59;;;;;;;28.80;18.30;;;8.00;99.90;;;;;;6150912;23;20020;-65
2023/12/13 12:23:45;;;;;;;29.63;18.40;;;8.00;99.90;;;;;;6150458;23;20001;-65
2023/12/13 12:26:31;;;;;;;28.13;17.83;;;8.10;99.90;;;;;;6147737;23;20552;-65
2023/12/13 12:29:17;;;;;;;29.70;16.73;;;8.10;99.90;;;;;;6149945;23;20435;-65
2023/12/13 12:32:08;;;;;;;27.15;17.55;;;8.10;99.90;;;;;;6151233;23;20343;-65
2023/12/13 12:34:54;;;;;;;30.33;19.17;;;8.10;99.90;;;;;;6149971;23;20514;-65
2023/12/13 12:37:40;;;;;;;28.33;19.83;;;8.00;99.90;;;;;;6151346;23;20209;-65
2023/12/13 12:40:27;;;;;;;32.85;19.42;;;8.00;99.90;;;;;;6151757;23;20006;-65
2023/12/13 12:43:20;;;;;;;31.33;20.52;;;8.00;99.90;;;;;;6151036;23;20010;-65
2023/12/13 12:46:06;;;;;;;31.52;19.13;;;8.00;99.90;;;;;;6150637;23;20005;-65
2023/12/13 12:48:52;;;;;;;32.00;17.48;;;8.00;99.90;;;;;;6151253;23;20068;-65
2023/12/13 12:51:38;;;;;;;28.52;17.23;;;8.00;99.90;;;;;;6151243;23;20032;-65
2023/12/13 12:54:24;;;;;;;30.90;19.33;;;8.00;99.90;;;;;;6152181;23;20045;-65
2023/12/13 12:57:10;;;;;;;28.67;17.55;;;8.00;99.90;;;;;;6149421;23;20510;-65
2023/12/13 12:59:56;;;;;;;30.02;18.15;;;8.00;99.90;;;;;;6150667;23;20009;-66
2023/12/13 13:02:42;;;;;;;28.38;16.95;;;8.00;99.90;;;;;;6150790;23;20494;-65
2023/12/13 13:05:27;;;;;;;34.13;18.83;;;8.00;99.90;;;;;;6150124;23;20060;-65
2023/12/13 13:08:13;;;;;;;31.48;19.67;;;8.10;99.90;;;;;;6150931;23;20252;-65
2023/12/13 13:10:59;;;;;;;32.08;19.23;;;8.00;99.90;;;;;;6151144;23;20014;-65
2023/12/13 13:13:45;;;;;;;30.77;18.92;;;8.00;99.90;;;;;;6151015;23;20088;-65
2023/12/13 13:16:32;;;;;;;26.15;16.73;;;7.90;99.90;;;;;;6151701;23;20088;-65
2023/12/13 13:19:18;;;;;;;29.83;18.08;;;8.00;99.90;;;;;;6151414;23;20036;-65
2023/12/13 13:22:04;;;;;;;30.30;17.50;;;8.00;99.90;;;;;;6151759;23;20012;-66
2023/12/13 13:24:50;;;;;;;35.72;18.50;;;8.00;99.90;;;;;;6150145;23;20005;-65
2023/12/13 13:27:36;;;;;;;26.08;15.60;;;8.00;99.90;;;;;;6150447;23;20365;-66
2023/12/13 13:30:22;;;;;;;29.63;17.45;;;8.00;99.90;;;;;;6149404;23;20100;-64
2023/12/13 13:33:10;;;;;;;33.88;18.60;;;8.00;99.90;;;;;;6151142;23;20056;-65
2023/12/13 13:35:56;;;;;;;27.60;16.55;;;8.00;99.90;;;;;;6151085;23;20014;-65
2023/12/13 13:38:42;;;;;;;25.63;16.52;;;8.00;99.90;;;;;;6150427;23;20016;-65
2023/12/13 13:41:28;;;;;;;24.20;15.82;;;8.00;99.90;;;;;;6150916;23;20085;-65
2023/12/13 13:44:14;;;;;;;23.73;15.32;;;8.00;99.90;;;;;;6150913;23;20009;-65
2023/12/13 13:47:00;;;;;;;27.25;17.83;;;7.90;99.90;;;;;;6150066;23;20014;-65
2023/12/13 13:49:46;;;;;;;25.23;16.75;;;8.00;99.90;;;;;;6150312;23;20101;-65
2023/12/13 13:52:32;;;;;;;22.42;14.52;;;8.00;99.90;;;;;;6151354;23;20006;-65
2023/12/13 13:55:17;;;;;;;22.60;15.23;;;8.00;99.90;;;;;;6150242;23;20024;-65
2023/12/13 13:58:03;;;;;;;25.92;15.70;;;8.00;99.90;;;;;;6149388;23;20016;-65
2023/12/13 14:00:50;;;;;;;25.83;15.23;;;8.10;99.90;;;;;;6150924;23;20025;-65
2023/12/13 14:03:36;;;;;;;24.55;15.68;;;8.10;99.90;;;;;;6151040;23;20033;-65
2023/12/13 14:06:22;;;;;;;24.80;15.57;;;8.10;99.90;;;;;;6149137;23;20013;-64
2023/12/13 14:09:09;;;;;;;23.70;14.82;;;8.10;99.90;;;;;;6150196;23;20101;-64
2023/12/13 14:11:55;;;;;;;24.88;16.55;;;8.10;99.90;;;;;;6150087;23;20009;-66
2023/12/13 14:14:41;;;;;;;23.73;14.82;;;8.10;99.90;;;;;;6150011;23;20012;-65
2023/12/13 14:17:30;;;;;;;24.48;15.23;;;8.20;99.90;;;;;;6151032;23;20324;-65